sensor_id;sensor_type;location;lat;lon;timestamp;P1;durP1;ratioP1;P2;durP2;ratioP2
10056;SDS011;5068;51.286;7.518;2023-02-28T00:00:08;5.13;;;1.70;;
10056;SDS011;5068;51.286;7.518;2023-02-28T00:01:44;4.55;;;1.80;;
10056;SDS011;5068;51.286;7.518;2023-02-28T00:03:17;3.08;;;1.20;;
10056;SDS011;5068;51.286;7.518;2023-02-28T00:04:49;4.35;;;1.55;;
10056;SDS011;5068;51.286;7.518;2023-02-28T00:06:24;4.82;;;1.48;;
10056;SDS011;5068;51.286;7.518;2023-02-28T00:07:57;2.55;;;1.30;;
10056;SDS011;5068;51.286;7.518;2023-02-28T00:09:31;3.10;;;1.15;;
10056;SDS011;5068;51.286;7.518;2023-02-28T00:11:04;3.80;;;1.50;;
10056;SDS011;5068;51.286;7.518;2023-02-28T00:12:40;3.65;;;1.50;;
10056;SDS011;5068;51.286;7.518;2023-02-28T00:14:13;4.05;;;1.50;;
10056;SDS011;5068;51.286;7.518;2023-02-28T00:15:47;3.22;;;1.20;;
10056;SDS011;5068;51.286;7.518;2023-02-28T00:17:20;2.75;;;0.98;;
10056;SDS011;5068;51.286;7.518;2023-02-28T00:18:53;5.13;;;1.38;;
10056;SDS011;5068;51.286;7.518;2023-02-28T00:20:26;3.25;;;1.08;;
10056;SDS011;5068;51.286;7.518;2023-02-28T00:21:58;4.13;;;1.40;;
10056;SDS011;5068;51.286;7.518;2023-02-28T00:23:31;4.18;;;1.60;;
10056;SDS011;5068;51.286;7.518;2023-02-28T00:25:07;5.55;;;1.48;;
10056;SDS011;5068;51.286;7.518;2023-02-28T00:26:42;2.83;;;1.25;;
10056;SDS011;5068;51.286;7.518;2023-02-28T00:28:15;3.38;;;1.20;;
10056;SDS011;5068;51.286;7.518;2023-02-28T00:29:47;1.95;;;0.90;;
10056;SDS011;5068;51.286;7.518;2023-02-28T00:31:21;3.13;;;1.17;;
10056;SDS011;5068;51.286;7.518;2023-02-28T00:32:54;4.25;;;1.63;;
10056;SDS011;5068;51.286;7.518;2023-02-28T00:34:27;3.60;;;1.60;;
10056;SDS011;5068;51.286;7.518;2023-02-28T00:36:02;4.40;;;1.77;;
10056;SDS011;5068;51.286;7.518;2023-02-28T00:37:40;5.15;;;1.67;;
10056;SDS011;5068;51.286;7.518;2023-02-28T00:39:13;3.75;;;1.52;;
10056;SDS011;5068;51.286;7.518;2023-02-28T00:40:48;3.05;;;1.30;;
10056;SDS011;5068;51.286;7.518;2023-02-28T00:42:21;4.68;;;1.35;;
10056;SDS011;5068;51.286;7.518;2023-02-28T00:43:54;2.83;;;1.45;;
10056;SDS011;5068;51.286;7.518;2023-02-28T00:45:28;3.58;;;1.17;;
10056;SDS011;5068;51.286;7.518;2023-02-28T00:47:01;2.95;;;1.40;;
10056;SDS011;5068;51.286;7.518;2023-02-28T00:48:35;3.28;;;1.42;;
10056;SDS011;5068;51.286;7.518;2023-02-28T00:50:08;3.88;;;1.50;;
10056;SDS011;5068;51.286;7.518;2023-02-28T00:51:42;3.45;;;1.38;;
10056;SDS011;5068;51.286;7.518;2023-02-28T00:53:16;4.97;;;1.30;;
10056;SDS011;5068;51.286;7.518;2023-02-28T00:54:50;3.63;;;1.30;;
10056;SDS011;5068;51.286;7.518;2023-02-28T00:56:24;3.10;;;1.50;;
10056;SDS011;5068;51.286;7.518;2023-02-28T00:57:57;3.05;;;1.17;;
10056;SDS011;5068;51.286;7.518;2023-02-28T00:59:31;4.53;;;1.50;;
10056;SDS011;5068;51.286;7.518;2023-02-28T01:01:04;3.72;;;1.27;;
10056;SDS011;5068;51.286;7.518;2023-02-28T01:02:37;4.25;;;1.40;;
10056;SDS011;5068;51.286;7.518;2023-02-28T01:04:12;3.63;;;1.13;;
10056;SDS011;5068;51.286;7.518;2023-02-28T01:05:46;2.15;;;1.08;;
10056;SDS011;5068;51.286;7.518;2023-02-28T01:07:21;5.10;;;1.48;;
10056;SDS011;5068;51.286;7.518;2023-02-28T01:08:54;4.43;;;1.52;;
10056;SDS011;5068;51.286;7.518;2023-02-28T01:10:26;3.40;;;1.45;;
10056;SDS011;5068;51.286;7.518;2023-02-28T01:12:04;3.17;;;1.33;;
10056;SDS011;5068;51.286;7.518;2023-02-28T01:13:39;3.25;;;1.67;;
10056;SDS011;5068;51.286;7.518;2023-02-28T01:15:13;4.10;;;1.48;;
10056;SDS011;5068;51.286;7.518;2023-02-28T01:16:46;3.13;;;1.80;;
10056;SDS011;5068;51.286;7.518;2023-02-28T01:18:19;2.30;;;1.10;;
10056;SDS011;5068;51.286;7.518;2023-02-28T01:19:53;3.97;;;1.30;;
10056;SDS011;5068;51.286;7.518;2023-02-28T01:21:29;4.78;;;1.63;;
10056;SDS011;5068;51.286;7.518;2023-02-28T01:23:02;3.72;;;1.60;;
10056;SDS011;5068;51.286;7.518;2023-02-28T01:24:35;6.10;;;1.63;;
10056;SDS011;5068;51.286;7.518;2023-02-28T01:26:10;5.28;;;2.05;;
10056;SDS011;5068;51.286;7.518;2023-02-28T01:27:46;3.33;;;1.60;;
10056;SDS011;5068;51.286;7.518;2023-02-28T01:29:20;6.10;;;1.85;;
10056;SDS011;5068;51.286;7.518;2023-02-28T01:30:53;5.32;;;2.35;;
10056;SDS011;5068;51.286;7.518;2023-02-28T01:32:26;5.60;;;2.00;;
10056;SDS011;5068;51.286;7.518;2023-02-28T01:33:59;5.55;;;2.15;;
10056;SDS011;5068;51.286;7.518;2023-02-28T01:35:33;6.10;;;2.45;;
10056;SDS011;5068;51.286;7.518;2023-02-28T01:37:07;5.65;;;2.45;;
10056;SDS011;5068;51.286;7.518;2023-02-28T01:38:40;6.70;;;2.20;;
10056;SDS011;5068;51.286;7.518;2023-02-28T01:40:13;4.50;;;1.60;;
10056;SDS011;5068;51.286;7.518;2023-02-28T01:41:47;6.20;;;2.35;;
10056;SDS011;5068;51.286;7.518;2023-02-28T01:43:23;6.70;;;2.10;;
10056;SDS011;5068;51.286;7.518;2023-02-28T01:45:03;6.75;;;1.83;;
10056;SDS011;5068;51.286;7.518;2023-02-28T01:46:51;5.63;;;1.85;;
10056;SDS011;5068;51.286;7.518;2023-02-28T01:48:24;6.28;;;2.30;;
10056;SDS011;5068;51.286;7.518;2023-02-28T01:50:05;6.80;;;2.10;;
10056;SDS011;5068;51.286;7.518;2023-02-28T01:51:44;6.80;;;2.17;;
10056;SDS011;5068;51.286;7.518;2023-02-28T01:53:24;6.05;;;2.45;;
10056;SDS011;5068;51.286;7.518;2023-02-28T01:55:05;4.93;;;1.65;;
10056;SDS011;5068;51.286;7.518;2023-02-28T01:56:42;4.95;;;2.17;;
10056;SDS011;5068;51.286;7.518;2023-02-28T01:58:19;4.75;;;2.05;;
10056;SDS011;5068;51.286;7.518;2023-02-28T02:01:32;5.90;;;1.60;;
10056;SDS011;5068;51.286;7.518;2023-02-28T02:03:06;4.88;;;2.05;;
10056;SDS011;5068;51.286;7.518;2023-02-28T02:04:44;6.03;;;2.22;;
10056;SDS011;5068;51.286;7.518;2023-02-28T02:06:25;5.82;;;2.10;;
10056;SDS011;5068;51.286;7.518;2023-02-28T02:08:03;5.68;;;2.10;;
10056;SDS011;5068;51.286;7.518;2023-02-28T02:09:41;5.65;;;1.88;;
10056;SDS011;5068;51.286;7.518;2023-02-28T02:11:14;4.40;;;1.90;;
10056;SDS011;5068;51.286;7.518;2023-02-28T02:13:00;4.93;;;1.50;;
10056;SDS011;5068;51.286;7.518;2023-02-28T02:15:05;4.25;;;1.80;;
10056;SDS011;5068;51.286;7.518;2023-02-28T02:16:51;4.47;;;1.67;;
10056;SDS011;5068;51.286;7.518;2023-02-28T02:18:38;5.85;;;1.70;;
10056;SDS011;5068;51.286;7.518;2023-02-28T02:20:35;4.85;;;1.60;;
10056;SDS011;5068;51.286;7.518;2023-02-28T02:22:48;5.43;;;1.65;;
10056;SDS011;5068;51.286;7.518;2023-02-28T02:25:10;4.65;;;1.65;;
10056;SDS011;5068;51.286;7.518;2023-02-28T02:26:55;5.57;;;1.77;;
10056;SDS011;5068;51.286;7.518;2023-02-28T02:29:11;4.75;;;1.58;;
10056;SDS011;5068;51.286;7.518;2023-02-28T02:31:20;4.68;;;1.90;;
10056;SDS011;5068;51.286;7.518;2023-02-28T02:33:33;3.83;;;1.40;;
10056;SDS011;5068;51.286;7.518;2023-02-28T02:35:47;5.03;;;1.60;;
10056;SDS011;5068;51.286;7.518;2023-02-28T02:37:28;6.07;;;1.88;;
10056;SDS011;5068;51.286;7.518;2023-02-28T02:39:11;3.80;;;1.70;;
10056;SDS011;5068;51.286;7.518;2023-02-28T02:40:54;5.93;;;2.03;;
10056;SDS011;5068;51.286;7.518;2023-02-28T02:44:18;5.25;;;1.63;;
10056;SDS011;5068;51.286;7.518;2023-02-28T02:45:58;4.18;;;1.48;;
10056;SDS011;5068;51.286;7.518;2023-02-28T02:47:36;4.13;;;1.60;;
10056;SDS011;5068;51.286;7.518;2023-02-28T02:49:13;3.28;;;1.30;;
10056;SDS011;5068;51.286;7.518;2023-02-28T02:50:54;4.90;;;1.50;;
10056;SDS011;5068;51.286;7.518;2023-02-28T02:52:34;3.10;;;1.50;;
10056;SDS011;5068;51.286;7.518;2023-02-28T02:54:15;4.28;;;1.55;;
10056;SDS011;5068;51.286;7.518;2023-02-28T02:55:53;5.30;;;1.98;;
10056;SDS011;5068;51.286;7.518;2023-02-28T02:57:32;3.17;;;1.30;;
10056;SDS011;5068;51.286;7.518;2023-02-28T02:59:11;3.40;;;1.30;;
10056;SDS011;5068;51.286;7.518;2023-02-28T03:00:53;3.45;;;1.40;;
10056;SDS011;5068;51.286;7.518;2023-02-28T03:02:31;3.40;;;1.10;;
10056;SDS011;5068;51.286;7.518;2023-02-28T03:04:07;4.07;;;1.23;;
10056;SDS011;5068;51.286;7.518;2023-02-28T03:05:47;4.45;;;1.30;;
10056;SDS011;5068;51.286;7.518;2023-02-28T03:07:23;3.67;;;1.42;;
10056;SDS011;5068;51.286;7.518;2023-02-28T03:10:34;3.08;;;1.10;;
10056;SDS011;5068;51.286;7.518;2023-02-28T03:12:12;4.85;;;1.13;;
10056;SDS011;5068;51.286;7.518;2023-02-28T03:18:05;3.95;;;1.23;;
10056;SDS011;5068;51.286;7.518;2023-02-28T03:19:51;4.07;;;1.30;;
10056;SDS011;5068;51.286;7.518;2023-02-28T03:21:42;5.20;;;1.20;;
10056;SDS011;5068;51.286;7.518;2023-02-28T03:23:26;3.17;;;1.25;;
10056;SDS011;5068;51.286;7.518;2023-02-28T03:25:12;2.47;;;1.10;;
10056;SDS011;5068;51.286;7.518;2023-02-28T03:26:54;2.50;;;1.10;;
10056;SDS011;5068;51.286;7.518;2023-02-28T03:28:39;4.25;;;1.60;;
10056;SDS011;5068;51.286;7.518;2023-02-28T03:30:23;3.10;;;1.17;;
10056;SDS011;5068;51.286;7.518;2023-02-28T03:32:05;2.20;;;0.90;;
10056;SDS011;5068;51.286;7.518;2023-02-28T03:33:54;3.45;;;1.33;;
10056;SDS011;5068;51.286;7.518;2023-02-28T03:37:11;3.05;;;1.13;;
10056;SDS011;5068;51.286;7.518;2023-02-28T03:38:53;3.75;;;1.00;;
10056;SDS011;5068;51.286;7.518;2023-02-28T03:40:33;3.15;;;1.15;;
10056;SDS011;5068;51.286;7.518;2023-02-28T03:42:10;4.15;;;1.13;;
10056;SDS011;5068;51.286;7.518;2023-02-28T03:43:48;2.60;;;0.93;;
10056;SDS011;5068;51.286;7.518;2023-02-28T03:45:28;2.92;;;0.98;;
10056;SDS011;5068;51.286;7.518;2023-02-28T03:47:06;2.88;;;1.17;;
10056;SDS011;5068;51.286;7.518;2023-02-28T03:48:45;2.72;;;1.10;;
10056;SDS011;5068;51.286;7.518;2023-02-28T03:50:27;4.00;;;1.02;;
10056;SDS011;5068;51.286;7.518;2023-02-28T03:52:08;2.30;;;0.95;;
10056;SDS011;5068;51.286;7.518;2023-02-28T03:53:44;2.95;;;0.90;;
10056;SDS011;5068;51.286;7.518;2023-02-28T03:55:23;2.53;;;0.90;;
10056;SDS011;5068;51.286;7.518;2023-02-28T03:56:57;3.22;;;0.90;;
10056;SDS011;5068;51.286;7.518;2023-02-28T03:58:37;2.65;;;1.00;;
10056;SDS011;5068;51.286;7.518;2023-02-28T04:00:16;1.77;;;0.90;;
10056;SDS011;5068;51.286;7.518;2023-02-28T04:01:58;2.28;;;0.82;;
10056;SDS011;5068;51.286;7.518;2023-02-28T04:03:32;1.83;;;1.00;;
10056;SDS011;5068;51.286;7.518;2023-02-28T04:05:07;2.92;;;1.30;;
10056;SDS011;5068;51.286;7.518;2023-02-28T04:06:41;2.22;;;0.85;;
10056;SDS011;5068;51.286;7.518;2023-02-28T04:08:15;1.58;;;0.75;;
10056;SDS011;5068;51.286;7.518;2023-02-28T04:09:50;2.45;;;0.90;;
10056;SDS011;5068;51.286;7.518;2023-02-28T04:11:26;3.15;;;0.90;;
10056;SDS011;5068;51.286;7.518;2023-02-28T04:13:06;2.13;;;0.98;;
10056;SDS011;5068;51.286;7.518;2023-02-28T04:14:39;3.13;;;1.08;;
10056;SDS011;5068;51.286;7.518;2023-02-28T04:16:12;3.25;;;0.95;;
10056;SDS011;5068;51.286;7.518;2023-02-28T04:18:04;2.03;;;0.82;;
10056;SDS011;5068;51.286;7.518;2023-02-28T04:19:38;2.25;;;1.20;;
10056;SDS011;5068;51.286;7.518;2023-02-28T04:21:11;1.52;;;0.88;;
10056;SDS011;5068;51.286;7.518;2023-02-28T04:22:45;2.40;;;1.10;;
10056;SDS011;5068;51.286;7.518;2023-02-28T04:24:19;2.65;;;1.10;;
10056;SDS011;5068;51.286;7.518;2023-02-28T04:25:55;4.10;;;1.15;;
10056;SDS011;5068;51.286;7.518;2023-02-28T04:27:28;1.90;;;0.80;;
10056;SDS011;5068;51.286;7.518;2023-02-28T04:29:03;1.98;;;0.95;;
10056;SDS011;5068;51.286;7.518;2023-02-28T04:30:38;1.70;;;0.85;;
10056;SDS011;5068;51.286;7.518;2023-02-28T04:32:11;2.58;;;0.73;;
10056;SDS011;5068;51.286;7.518;2023-02-28T04:35:19;1.42;;;0.90;;
10056;SDS011;5068;51.286;7.518;2023-02-28T04:36:52;2.13;;;0.80;;
10056;SDS011;5068;51.286;7.518;2023-02-28T04:38:43;2.00;;;0.93;;
10056;SDS011;5068;51.286;7.518;2023-02-28T04:40:17;1.38;;;0.60;;
10056;SDS011;5068;51.286;7.518;2023-02-28T04:41:52;2.15;;;0.80;;
10056;SDS011;5068;51.286;7.518;2023-02-28T04:43:25;2.25;;;0.77;;
10056;SDS011;5068;51.286;7.518;2023-02-28T04:44:59;1.85;;;0.93;;
10056;SDS011;5068;51.286;7.518;2023-02-28T04:46:32;2.13;;;0.75;;
10056;SDS011;5068;51.286;7.518;2023-02-28T04:48:05;2.10;;;0.75;;
10056;SDS011;5068;51.286;7.518;2023-02-28T04:49:47;1.90;;;0.80;;
10056;SDS011;5068;51.286;7.518;2023-02-28T04:51:21;1.42;;;0.70;;
10056;SDS011;5068;51.286;7.518;2023-02-28T04:52:53;3.15;;;0.90;;
10056;SDS011;5068;51.286;7.518;2023-02-28T04:54:26;2.22;;;0.70;;
10056;SDS011;5068;51.286;7.518;2023-02-28T04:56:00;2.28;;;0.70;;
10056;SDS011;5068;51.286;7.518;2023-02-28T04:57:35;2.40;;;0.77;;
10056;SDS011;5068;51.286;7.518;2023-02-28T04:59:08;2.50;;;1.20;;
10056;SDS011;5068;51.286;7.518;2023-02-28T05:00:41;2.95;;;1.00;;
10056;SDS011;5068;51.286;7.518;2023-02-28T05:02:14;2.58;;;0.75;;
10056;SDS011;5068;51.286;7.518;2023-02-28T05:03:48;1.42;;;0.73;;
10056;SDS011;5068;51.286;7.518;2023-02-28T05:05:22;1.70;;;0.70;;
10056;SDS011;5068;51.286;7.518;2023-02-28T05:06:55;1.85;;;0.70;;
10056;SDS011;5068;51.286;7.518;2023-02-28T05:08:28;2.03;;;0.85;;
10056;SDS011;5068;51.286;7.518;2023-02-28T05:10:01;1.42;;;0.70;;
10056;SDS011;5068;51.286;7.518;2023-02-28T05:13:12;1.92;;;0.70;;
10056;SDS011;5068;51.286;7.518;2023-02-28T05:14:45;1.63;;;0.70;;
10056;SDS011;5068;51.286;7.518;2023-02-28T05:16:19;1.67;;;0.80;;
10056;SDS011;5068;51.286;7.518;2023-02-28T05:17:52;2.15;;;0.70;;
10056;SDS011;5068;51.286;7.518;2023-02-28T05:19:25;1.70;;;0.90;;
10056;SDS011;5068;51.286;7.518;2023-02-28T05:20:59;2.28;;;0.80;;
10056;SDS011;5068;51.286;7.518;2023-02-28T05:22:33;2.22;;;0.70;;
10056;SDS011;5068;51.286;7.518;2023-02-28T05:24:08;3.20;;;0.85;;
10056;SDS011;5068;51.286;7.518;2023-02-28T05:25:43;1.50;;;0.80;;
10056;SDS011;5068;51.286;7.518;2023-02-28T05:27:16;2.42;;;0.90;;
10056;SDS011;5068;51.286;7.518;2023-02-28T05:28:51;1.92;;;0.70;;
10056;SDS011;5068;51.286;7.518;2023-02-28T05:30:24;2.10;;;0.70;;
10056;SDS011;5068;51.286;7.518;2023-02-28T05:31:58;2.10;;;0.90;;
10056;SDS011;5068;51.286;7.518;2023-02-28T05:33:32;1.48;;;0.50;;
10056;SDS011;5068;51.286;7.518;2023-02-28T05:35:04;1.23;;;0.75;;
10056;SDS011;5068;51.286;7.518;2023-02-28T05:36:38;2.45;;;0.80;;
10056;SDS011;5068;51.286;7.518;2023-02-28T05:38:11;1.48;;;0.60;;
10056;SDS011;5068;51.286;7.518;2023-02-28T05:39:44;1.73;;;0.68;;
10056;SDS011;5068;51.286;7.518;2023-02-28T05:41:19;3.10;;;0.70;;
10056;SDS011;5068;51.286;7.518;2023-02-28T05:42:53;1.38;;;0.60;;
10056;SDS011;5068;51.286;7.518;2023-02-28T05:44:28;1.20;;;0.60;;
10056;SDS011;5068;51.286;7.518;2023-02-28T05:46:02;1.75;;;0.75;;
10056;SDS011;5068;51.286;7.518;2023-02-28T05:47:38;2.15;;;0.80;;
10056;SDS011;5068;51.286;7.518;2023-02-28T05:49:11;1.85;;;0.65;;
10056;SDS011;5068;51.286;7.518;2023-02-28T05:50:44;2.10;;;0.70;;
10056;SDS011;5068;51.286;7.518;2023-02-28T05:52:17;2.00;;;0.93;;
10056;SDS011;5068;51.286;7.518;2023-02-28T05:53:50;1.73;;;0.77;;
10056;SDS011;5068;51.286;7.518;2023-02-28T05:55:23;2.95;;;0.90;;
10056;SDS011;5068;51.286;7.518;2023-02-28T05:56:56;1.45;;;0.80;;
10056;SDS011;5068;51.286;7.518;2023-02-28T05:58:30;1.63;;;0.70;;
10056;SDS011;5068;51.286;7.518;2023-02-28T06:00:06;3.35;;;0.93;;
10056;SDS011;5068;51.286;7.518;2023-02-28T06:01:44;1.83;;;0.70;;
10056;SDS011;5068;51.286;7.518;2023-02-28T06:03:20;1.23;;;0.70;;
10056;SDS011;5068;51.286;7.518;2023-02-28T06:04:53;2.28;;;0.75;;
10056;SDS011;5068;51.286;7.518;2023-02-28T06:06:26;1.70;;;0.75;;
10056;SDS011;5068;51.286;7.518;2023-02-28T06:08:00;2.47;;;0.70;;
10056;SDS011;5068;51.286;7.518;2023-02-28T06:09:34;4.20;;;0.82;;
10056;SDS011;5068;51.286;7.518;2023-02-28T06:11:07;1.70;;;0.82;;
10056;SDS011;5068;51.286;7.518;2023-02-28T06:12:39;1.35;;;0.65;;
10056;SDS011;5068;51.286;7.518;2023-02-28T06:14:14;2.33;;;0.90;;
10056;SDS011;5068;51.286;7.518;2023-02-28T06:15:50;2.28;;;0.90;;
10056;SDS011;5068;51.286;7.518;2023-02-28T06:17:23;1.25;;;0.68;;
10056;SDS011;5068;51.286;7.518;2023-02-28T06:18:57;2.08;;;1.23;;
10056;SDS011;5068;51.286;7.518;2023-02-28T06:23:37;2.13;;;0.70;;
10056;SDS011;5068;51.286;7.518;2023-02-28T06:25:10;1.13;;;0.70;;
10056;SDS011;5068;51.286;7.518;2023-02-28T06:26:44;1.40;;;0.60;;
10056;SDS011;5068;51.286;7.518;2023-02-28T06:28:17;2.70;;;0.70;;
10056;SDS011;5068;51.286;7.518;2023-02-28T06:29:53;2.20;;;1.08;;
10056;SDS011;5068;51.286;7.518;2023-02-28T06:31:29;1.65;;;0.75;;
10056;SDS011;5068;51.286;7.518;2023-02-28T06:33:03;2.00;;;0.73;;
10056;SDS011;5068;51.286;7.518;2023-02-28T06:34:36;2.20;;;0.82;;
10056;SDS011;5068;51.286;7.518;2023-02-28T06:36:09;1.45;;;0.80;;
10056;SDS011;5068;51.286;7.518;2023-02-28T06:37:44;1.85;;;0.77;;
10056;SDS011;5068;51.286;7.518;2023-02-28T06:39:18;2.85;;;1.15;;
10056;SDS011;5068;51.286;7.518;2023-02-28T06:40:55;3.17;;;1.15;;
10056;SDS011;5068;51.286;7.518;2023-02-28T06:42:29;2.00;;;0.98;;
10056;SDS011;5068;51.286;7.518;2023-02-28T06:44:03;3.97;;;1.00;;
10056;SDS011;5068;51.286;7.518;2023-02-28T06:45:37;1.88;;;0.90;;
10056;SDS011;5068;51.286;7.518;2023-02-28T06:47:16;2.17;;;0.80;;
10056;SDS011;5068;51.286;7.518;2023-02-28T06:48:49;3.97;;;1.10;;
10056;SDS011;5068;51.286;7.518;2023-02-28T06:50:23;1.63;;;0.70;;
10056;SDS011;5068;51.286;7.518;2023-02-28T06:51:56;3.53;;;0.88;;
10056;SDS011;5068;51.286;7.518;2023-02-28T06:53:29;1.73;;;0.90;;
10056;SDS011;5068;51.286;7.518;2023-02-28T06:55:03;2.60;;;0.90;;
10056;SDS011;5068;51.286;7.518;2023-02-28T06:56:38;3.25;;;0.73;;
10056;SDS011;5068;51.286;7.518;2023-02-28T06:58:12;1.83;;;0.85;;
10056;SDS011;5068;51.286;7.518;2023-02-28T06:59:47;2.42;;;0.90;;
10056;SDS011;5068;51.286;7.518;2023-02-28T07:01:21;2.00;;;0.77;;
10056;SDS011;5068;51.286;7.518;2023-02-28T07:02:57;2.00;;;0.88;;
10056;SDS011;5068;51.286;7.518;2023-02-28T07:04:30;1.48;;;0.85;;
10056;SDS011;5068;51.286;7.518;2023-02-28T07:06:04;2.00;;;0.90;;
10056;SDS011;5068;51.286;7.518;2023-02-28T07:07:38;1.88;;;0.95;;
10056;SDS011;5068;51.286;7.518;2023-02-28T07:09:15;1.92;;;0.80;;
10056;SDS011;5068;51.286;7.518;2023-02-28T07:10:51;1.70;;;0.68;;
10056;SDS011;5068;51.286;7.518;2023-02-28T07:12:25;1.95;;;0.70;;
10056;SDS011;5068;51.286;7.518;2023-02-28T07:13:58;2.08;;;0.82;;
10056;SDS011;5068;51.286;7.518;2023-02-28T07:15:31;1.98;;;0.70;;
10056;SDS011;5068;51.286;7.518;2023-02-28T07:17:06;2.00;;;0.75;;
10056;SDS011;5068;51.286;7.518;2023-02-28T07:18:41;1.90;;;0.70;;
10056;SDS011;5068;51.286;7.518;2023-02-28T07:20:14;1.73;;;1.00;;
10056;SDS011;5068;51.286;7.518;2023-02-28T07:21:47;3.03;;;1.00;;
10056;SDS011;5068;51.286;7.518;2023-02-28T07:23:20;1.60;;;0.90;;
10056;SDS011;5068;51.286;7.518;2023-02-28T07:24:54;1.38;;;0.60;;
10056;SDS011;5068;51.286;7.518;2023-02-28T07:26:27;1.42;;;0.73;;
10056;SDS011;5068;51.286;7.518;2023-02-28T07:28:01;3.35;;;1.00;;
10056;SDS011;5068;51.286;7.518;2023-02-28T07:29:34;1.20;;;0.60;;
10056;SDS011;5068;51.286;7.518;2023-02-28T07:31:09;2.10;;;0.60;;
10056;SDS011;5068;51.286;7.518;2023-02-28T07:32:43;1.35;;;0.70;;
10056;SDS011;5068;51.286;7.518;2023-02-28T07:34:20;1.35;;;0.70;;
10056;SDS011;5068;51.286;7.518;2023-02-28T07:36:08;2.65;;;0.93;;
10056;SDS011;5068;51.286;7.518;2023-02-28T07:37:46;1.30;;;0.80;;
10056;SDS011;5068;51.286;7.518;2023-02-28T07:39:20;1.40;;;0.60;;
10056;SDS011;5068;51.286;7.518;2023-02-28T07:40:54;2.30;;;0.80;;
10056;SDS011;5068;51.286;7.518;2023-02-28T07:42:28;1.30;;;0.80;;
10056;SDS011;5068;51.286;7.518;2023-02-28T07:44:01;2.03;;;1.02;;
10056;SDS011;5068;51.286;7.518;2023-02-28T07:45:34;2.17;;;0.80;;
10056;SDS011;5068;51.286;7.518;2023-02-28T07:47:08;1.88;;;0.65;;
10056;SDS011;5068;51.286;7.518;2023-02-28T07:48:42;1.85;;;0.82;;
10056;SDS011;5068;51.286;7.518;2023-02-28T07:50:18;2.00;;;0.80;;
10056;SDS011;5068;51.286;7.518;2023-02-28T07:51:51;2.40;;;0.98;;
10056;SDS011;5068;51.286;7.518;2023-02-28T07:53:24;1.80;;;0.80;;
10056;SDS011;5068;51.286;7.518;2023-02-28T07:54:58;1.63;;;0.70;;
10056;SDS011;5068;51.286;7.518;2023-02-28T07:56:31;2.10;;;0.80;;
10056;SDS011;5068;51.286;7.518;2023-02-28T07:58:04;1.48;;;0.75;;
10056;SDS011;5068;51.286;7.518;2023-02-28T07:59:37;1.60;;;0.80;;
10056;SDS011;5068;51.286;7.518;2023-02-28T08:01:11;2.47;;;0.75;;
10056;SDS011;5068;51.286;7.518;2023-02-28T08:02:48;2.08;;;0.80;;
10056;SDS011;5068;51.286;7.518;2023-02-28T08:04:43;1.70;;;1.00;;
10056;SDS011;5068;51.286;7.518;2023-02-28T08:06:21;1.70;;;0.85;;
10056;SDS011;5068;51.286;7.518;2023-02-28T08:07:57;1.30;;;0.80;;
10056;SDS011;5068;51.286;7.518;2023-02-28T08:09:31;1.45;;;0.80;;
10056;SDS011;5068;51.286;7.518;2023-02-28T08:11:05;3.05;;;1.05;;
10056;SDS011;5068;51.286;7.518;2023-02-28T08:12:38;1.52;;;0.80;;
10056;SDS011;5068;51.286;7.518;2023-02-28T08:14:11;2.35;;;0.90;;
10056;SDS011;5068;51.286;7.518;2023-02-28T08:15:44;2.47;;;1.30;;
10056;SDS011;5068;51.286;7.518;2023-02-28T08:17:18;2.85;;;1.00;;
10056;SDS011;5068;51.286;7.518;2023-02-28T08:18:52;1.65;;;0.88;;
10056;SDS011;5068;51.286;7.518;2023-02-28T08:20:25;1.65;;;1.00;;
10056;SDS011;5068;51.286;7.518;2023-02-28T08:22:00;1.98;;;1.20;;
10056;SDS011;5068;51.286;7.518;2023-02-28T08:23:33;2.30;;;0.95;;
10056;SDS011;5068;51.286;7.518;2023-02-28T08:25:07;2.72;;;1.30;;
10056;SDS011;5068;51.286;7.518;2023-02-28T08:26:41;3.80;;;1.50;;
10056;SDS011;5068;51.286;7.518;2023-02-28T08:28:14;3.42;;;1.50;;
10056;SDS011;5068;51.286;7.518;2023-02-28T08:29:47;2.70;;;1.70;;
10056;SDS011;5068;51.286;7.518;2023-02-28T08:31:21;3.55;;;1.63;;
10056;SDS011;5068;51.286;7.518;2023-02-28T08:32:54;4.22;;;1.83;;
10056;SDS011;5068;51.286;7.518;2023-02-28T08:34:27;5.47;;;2.15;;
10056;SDS011;5068;51.286;7.518;2023-02-28T08:36:00;5.05;;;2.38;;
10056;SDS011;5068;51.286;7.518;2023-02-28T08:37:35;4.22;;;1.75;;
10056;SDS011;5068;51.286;7.518;2023-02-28T08:39:08;3.22;;;1.98;;
10056;SDS011;5068;51.286;7.518;2023-02-28T08:40:41;3.70;;;1.40;;
10056;SDS011;5068;51.286;7.518;2023-02-28T08:42:15;3.03;;;1.50;;
10056;SDS011;5068;51.286;7.518;2023-02-28T08:43:48;4.25;;;1.63;;
10056;SDS011;5068;51.286;7.518;2023-02-28T08:45:21;4.15;;;1.92;;
10056;SDS011;5068;51.286;7.518;2023-02-28T08:46:54;2.83;;;1.58;;
10056;SDS011;5068;51.286;7.518;2023-02-28T08:48:28;3.25;;;1.63;;
10056;SDS011;5068;51.286;7.518;2023-02-28T08:50:04;3.55;;;1.60;;
10056;SDS011;5068;51.286;7.518;2023-02-28T08:51:41;3.15;;;1.50;;
10056;SDS011;5068;51.286;7.518;2023-02-28T08:53:16;3.42;;;1.70;;
10056;SDS011;5068;51.286;7.518;2023-02-28T08:54:49;4.85;;;2.25;;
10056;SDS011;5068;51.286;7.518;2023-02-28T08:56:22;3.22;;;1.30;;
10056;SDS011;5068;51.286;7.518;2023-02-28T08:57:56;3.42;;;1.23;;
10056;SDS011;5068;51.286;7.518;2023-02-28T08:59:29;4.18;;;1.67;;
10056;SDS011;5068;51.286;7.518;2023-02-28T09:01:07;3.65;;;1.02;;
10056;SDS011;5068;51.286;7.518;2023-02-28T09:02:44;3.42;;;1.08;;
10056;SDS011;5068;51.286;7.518;2023-02-28T09:04:17;3.08;;;1.85;;
10056;SDS011;5068;51.286;7.518;2023-02-28T09:05:53;3.50;;;1.50;;
10056;SDS011;5068;51.286;7.518;2023-02-28T09:07:27;5.80;;;1.90;;
10056;SDS011;5068;51.286;7.518;2023-02-28T09:09:02;4.25;;;1.30;;
10056;SDS011;5068;51.286;7.518;2023-02-28T09:10:37;2.17;;;0.75;;
10056;SDS011;5068;51.286;7.518;2023-02-28T09:12:11;3.20;;;1.02;;
10056;SDS011;5068;51.286;7.518;2023-02-28T09:13:44;1.02;;;0.70;;
10056;SDS011;5068;51.286;7.518;2023-02-28T09:15:18;2.35;;;0.85;;
10056;SDS011;5068;51.286;7.518;2023-02-28T09:16:51;1.75;;;0.60;;
10056;SDS011;5068;51.286;7.518;2023-02-28T09:18:25;2.55;;;0.65;;
10056;SDS011;5068;51.286;7.518;2023-02-28T09:19:58;1.35;;;0.77;;
10056;SDS011;5068;51.286;7.518;2023-02-28T09:21:32;1.90;;;0.68;;
10056;SDS011;5068;51.286;7.518;2023-02-28T09:23:05;1.70;;;0.70;;
10056;SDS011;5068;51.286;7.518;2023-02-28T09:24:39;2.05;;;0.65;;
10056;SDS011;5068;51.286;7.518;2023-02-28T09:26:14;1.80;;;0.70;;
10056;SDS011;5068;51.286;7.518;2023-02-28T09:27:49;1.70;;;0.80;;
10056;SDS011;5068;51.286;7.518;2023-02-28T09:29:22;1.48;;;0.73;;
10056;SDS011;5068;51.286;7.518;2023-02-28T09:30:55;2.45;;;0.88;;
10056;SDS011;5068;51.286;7.518;2023-02-28T09:32:30;1.00;;;0.63;;
10056;SDS011;5068;51.286;7.518;2023-02-28T09:34:03;2.42;;;1.90;;
10056;SDS011;5068;51.286;7.518;2023-02-28T09:35:37;1.95;;;0.90;;
10056;SDS011;5068;51.286;7.518;2023-02-28T09:37:10;1.88;;;0.90;;
10056;SDS011;5068;51.286;7.518;2023-02-28T09:38:43;1.23;;;0.68;;
10056;SDS011;5068;51.286;7.518;2023-02-28T09:40:22;1.95;;;0.73;;
10056;SDS011;5068;51.286;7.518;2023-02-28T09:41:58;1.20;;;0.73;;
10056;SDS011;5068;51.286;7.518;2023-02-28T09:43:33;1.75;;;0.68;;
10056;SDS011;5068;51.286;7.518;2023-02-28T09:45:13;1.60;;;0.98;;
10056;SDS011;5068;51.286;7.518;2023-02-28T09:46:57;1.67;;;1.00;;
10056;SDS011;5068;51.286;7.518;2023-02-28T09:48:37;1.38;;;0.65;;
10056;SDS011;5068;51.286;7.518;2023-02-28T09:50:17;2.50;;;0.82;;
10056;SDS011;5068;51.286;7.518;2023-02-28T09:52:04;1.88;;;1.08;;
10056;SDS011;5068;51.286;7.518;2023-02-28T09:53:43;1.60;;;0.68;;
10056;SDS011;5068;51.286;7.518;2023-02-28T09:55:27;1.88;;;0.98;;
10056;SDS011;5068;51.286;7.518;2023-02-28T09:57:19;1.60;;;0.80;;
10056;SDS011;5068;51.286;7.518;2023-02-28T09:59:05;1.60;;;0.80;;
10056;SDS011;5068;51.286;7.518;2023-02-28T10:00:49;1.35;;;0.80;;
10056;SDS011;5068;51.286;7.518;2023-02-28T10:04:50;1.20;;;0.73;;
10056;SDS011;5068;51.286;7.518;2023-02-28T10:06:29;1.92;;;0.90;;
10056;SDS011;5068;51.286;7.518;2023-02-28T10:08:11;2.97;;;1.40;;